sensor_id;sensor_type;location;lat;lon;timestamp;temperature;humidity
27164;DHT22;14685;50.618;7.024;2023-08-31T00:01:19;16.80;99.90
27164;DHT22;14685;50.618;7.024;2023-08-31T00:03:46;16.80;99.90
27164;DHT22;14685;50.618;7.024;2023-08-31T00:06:13;16.80;99.90
27164;DHT22;14685;50.618;7.024;2023-08-31T00:08:41;16.90;99.90
27164;DHT22;14685;50.618;7.024;2023-08-31T00:11:10;16.90;99.90
27164;DHT22;14685;50.618;7.024;2023-08-31T00:13:37;16.90;99.90
27164;DHT22;14685;50.618;7.024;2023-08-31T00:16:04;16.90;99.90
27164;DHT22;14685;50.618;7.024;2023-08-31T00:18:31;16.90;99.90
27164;DHT22;14685;50.618;7.024;2023-08-31T00:20:58;16.90;99.90
27164;DHT22;14685;50.618;7.024;2023-08-31T00:23:25;16.90;99.90
27164;DHT22;14685;50.618;7.024;2023-08-31T00:25:52;16.90;99.90
27164;DHT22;14685;50.618;7.024;2023-08-31T00:28:20;17.00;99.90
27164;DHT22;14685;50.618;7.024;2023-08-31T00:30:48;16.90;99.90
27164;DHT22;14685;50.618;7.024;2023-08-31T00:33:16;16.90;99.90
27164;DHT22;14685;50.618;7.024;2023-08-31T00:35:43;16.90;99.90
27164;DHT22;14685;50.618;7.024;2023-08-31T00:38:13;16.90;99.90
27164;DHT22;14685;50.618;7.024;2023-08-31T00:40:44;17.00;99.90
27164;DHT22;14685;50.618;7.024;2023-08-31T00:43:15;17.00;99.90
27164;DHT22;14685;50.618;7.024;2023-08-31T00:45:44;16.90;99.90
27164;DHT22;14685;50.618;7.024;2023-08-31T00:48:12;16.90;99.90
27164;DHT22;14685;50.618;7.024;2023-08-31T00:50:41;16.90;99.90
27164;DHT22;14685;50.618;7.024;2023-08-31T00:53:08;16.90;99.90
27164;DHT22;14685;50.618;7.024;2023-08-31T00:55:36;16.90;99.90
27164;DHT22;14685;50.618;7.024;2023-08-31T00:58:03;16.90;99.90
27164;DHT22;14685;50.618;7.024;2023-08-31T01:09:27;16.90;99.90
27164;DHT22;14685;50.618;7.024;2023-08-31T01:14:54;16.80;99.90
27164;DHT22;14685;50.618;7.024;2023-08-31T01:17:26;16.80;99.90
27164;DHT22;14685;50.618;7.024;2023-08-31T01:19:57;16.80;99.90
27164;DHT22;14685;50.618;7.024;2023-08-31T01:25:09;16.70;99.90
27164;DHT22;14685;50.618;7.024;2023-08-31T01:27:37;16.70;99.90
27164;DHT22;14685;50.618;7.024;2023-08-31T01:30:06;16.80;99.90
27164;DHT22;14685;50.618;7.024;2023-08-31T01:32:33;16.70;99.90
27164;DHT22;14685;50.618;7.024;2023-08-31T01:35:01;16.70;99.90
27164;DHT22;14685;50.618;7.024;2023-08-31T01:37:48;16.70;99.90
27164;DHT22;14685;50.618;7.024;2023-08-31T01:40:35;16.70;99.90
27164;DHT22;14685;50.618;7.024;2023-08-31T01:43:03;16.80;99.90
27164;DHT22;14685;50.618;7.024;2023-08-31T01:45:32;16.70;99.90
27164;DHT22;14685;50.618;7.024;2023-08-31T01:48:01;16.70;99.90
27164;DHT22;14685;50.618;7.024;2023-08-31T01:50:28;16.70;99.90
27164;DHT22;14685;50.618;7.024;2023-08-31T01:52:55;16.70;99.90
27164;DHT22;14685;50.618;7.024;2023-08-31T01:55:24;16.70;99.90
27164;DHT22;14685;50.618;7.024;2023-08-31T01:57:51;16.70;99.90
27164;DHT22;14685;50.618;7.024;2023-08-31T02:00:18;16.80;99.90
27164;DHT22;14685;50.618;7.024;2023-08-31T02:02:46;16.70;99.90
27164;DHT22;14685;50.618;7.024;2023-08-31T02:05:13;16.70;99.90
27164;DHT22;14685;50.618;7.024;2023-08-31T02:07:40;16.70;99.90
27164;DHT22;14685;50.618;7.024;2023-08-31T02:10:07;16.70;99.90
27164;DHT22;14685;50.618;7.024;2023-08-31T02:12:35;16.70;99.90
27164;DHT22;14685;50.618;7.024;2023-08-31T02:15:07;16.70;99.90
27164;DHT22;14685;50.618;7.024;2023-08-31T02:17:34;16.70;99.90
27164;DHT22;14685;50.618;7.024;2023-08-31T02:20:02;16.70;99.90
27164;DHT22;14685;50.618;7.024;2023-08-31T02:22:33;16.70;99.90
27164;DHT22;14685;50.618;7.024;2023-08-31T02:25:01;16.70;99.90
27164;DHT22;14685;50.618;7.024;2023-08-31T02:27:29;16.70;99.90
27164;DHT22;14685;50.618;7.024;2023-08-31T02:29:56;16.70;99.90
27164;DHT22;14685;50.618;7.024;2023-08-31T02:32:23;16.60;99.90
27164;DHT22;14685;50.618;7.024;2023-08-31T02:34:50;16.60;99.90
27164;DHT22;14685;50.618;7.024;2023-08-31T02:37:17;16.70;99.90
27164;DHT22;14685;50.618;7.024;2023-08-31T02:39:44;16.60;99.90
27164;DHT22;14685;50.618;7.024;2023-08-31T02:42:11;16.70;99.90
27164;DHT22;14685;50.618;7.024;2023-08-31T02:44:38;16.60;99.90
27164;DHT22;14685;50.618;7.024;2023-08-31T02:47:05;16.60;99.90
27164;DHT22;14685;50.618;7.024;2023-08-31T02:49:32;16.50;99.90
27164;DHT22;14685;50.618;7.024;2023-08-31T02:51:59;16.50;99.90
27164;DHT22;14685;50.618;7.024;2023-08-31T02:54:26;16.50;99.90
27164;DHT22;14685;50.618;7.024;2023-08-31T02:56:54;16.50;99.90
27164;DHT22;14685;50.618;7.024;2023-08-31T02:59:23;16.40;99.90
27164;DHT22;14685;50.618;7.024;2023-08-31T03:01:49;16.40;99.90
27164;DHT22;14685;50.618;7.024;2023-08-31T03:04:16;16.40;99.90
27164;DHT22;14685;50.618;7.024;2023-08-31T03:06:44;16.30;99.90
27164;DHT22;14685;50.618;7.024;2023-08-31T03:09:12;16.20;99.90
27164;DHT22;14685;50.618;7.024;2023-08-31T03:11:40;16.20;99.90
27164;DHT22;14685;50.618;7.024;2023-08-31T03:14:07;16.20;99.90
27164;DHT22;14685;50.618;7.024;2023-08-31T03:16:36;16.00;99.90
27164;DHT22;14685;50.618;7.024;2023-08-31T03:19:03;16.00;99.90
27164;DHT22;14685;50.618;7.024;2023-08-31T03:21:30;16.00;99.90
27164;DHT22;14685;50.618;7.024;2023-08-31T03:23:57;16.00;99.90
27164;DHT22;14685;50.618;7.024;2023-08-31T03:26:25;16.00;99.90
27164;DHT22;14685;50.618;7.024;2023-08-31T03:28:52;16.00;99.90
27164;DHT22;14685;50.618;7.024;2023-08-31T03:31:19;16.00;99.90
27164;DHT22;14685;50.618;7.024;2023-08-31T03:33:46;16.00;99.90
27164;DHT22;14685;50.618;7.024;2023-08-31T03:36:13;15.90;99.90
27164;DHT22;14685;50.618;7.024;2023-08-31T03:38:40;15.90;99.90
27164;DHT22;14685;50.618;7.024;2023-08-31T03:41:07;15.90;99.90
27164;DHT22;14685;50.618;7.024;2023-08-31T03:43:34;15.90;99.90
27164;DHT22;14685;50.618;7.024;2023-08-31T03:46:01;15.80;99.90
27164;DHT22;14685;50.618;7.024;2023-08-31T03:48:29;15.90;99.90
27164;DHT22;14685;50.618;7.024;2023-08-31T03:50:56;15.80;99.90
27164;DHT22;14685;50.618;7.024;2023-08-31T03:53:23;15.80;99.90
27164;DHT22;14685;50.618;7.024;2023-08-31T03:55:50;15.80;99.90
27164;DHT22;14685;50.618;7.024;2023-08-31T03:58:17;15.80;99.90
27164;DHT22;14685;50.618;7.024;2023-08-31T04:00:44;15.80;99.90
27164;DHT22;14685;50.618;7.024;2023-08-31T04:03:11;15.70;99.90
27164;DHT22;14685;50.618;7.024;2023-08-31T04:05:38;15.70;99.90
27164;DHT22;14685;50.618;7.024;2023-08-31T04:08:05;15.60;99.90
27164;DHT22;14685;50.618;7.024;2023-08-31T04:10:32;15.50;99.90
27164;DHT22;14685;50.618;7.024;2023-08-31T04:12:59;15.50;99.90
27164;DHT22;14685;50.618;7.024;2023-08-31T04:15:26;15.50;99.90
27164;DHT22;14685;50.618;7.024;2023-08-31T04:17:53;15.50;99.90
27164;DHT22;14685;50.618;7.024;2023-08-31T04:20:21;15.50;99.90
27164;DHT22;14685;50.618;7.024;2023-08-31T04:22:48;15.50;99.90
27164;DHT22;14685;50.618;7.024;2023-08-31T04:25:14;15.50;99.90
27164;DHT22;14685;50.618;7.024;2023-08-31T04:27:42;15.50;99.90
27164;DHT22;14685;50.618;7.024;2023-08-31T04:30:11;15.50;99.90
27164;DHT22;14685;50.618;7.024;2023-08-31T04:32:39;15.50;99.90
27164;DHT22;14685;50.618;7.024;2023-08-31T04:35:07;15.40;99.90
27164;DHT22;14685;50.618;7.024;2023-08-31T04:37:34;15.40;99.90
27164;DHT22;14685;50.618;7.024;2023-08-31T04:40:01;15.30;99.90
27164;DHT22;14685;50.618;7.024;2023-08-31T04:42:30;15.30;99.90
27164;DHT22;14685;50.618;7.024;2023-08-31T04:44:57;15.40;99.90
27164;DHT22;14685;50.618;7.024;2023-08-31T04:47:24;15.20;99.90
27164;DHT22;14685;50.618;7.024;2023-08-31T04:49:51;15.30;99.90
27164;DHT22;14685;50.618;7.024;2023-08-31T04:52:20;15.20;99.90
27164;DHT22;14685;50.618;7.024;2023-08-31T04:54:47;15.20;99.90
27164;DHT22;14685;50.618;7.024;2023-08-31T04:57:14;15.20;99.90
27164;DHT22;14685;50.618;7.024;2023-08-31T04:59:40;15.20;99.90
27164;DHT22;14685;50.618;7.024;2023-08-31T05:02:07;15.20;99.90
27164;DHT22;14685;50.618;7.024;2023-08-31T05:04:34;15.20;99.90
27164;DHT22;14685;50.618;7.024;2023-08-31T05:07:01;15.20;99.90
27164;DHT22;14685;50.618;7.024;2023-08-31T05:09:29;15.20;99.90
27164;DHT22;14685;50.618;7.024;2023-08-31T05:12:02;15.20;99.90
27164;DHT22;14685;50.618;7.024;2023-08-31T05:14:30;15.20;99.90
27164;DHT22;14685;50.618;7.024;2023-08-31T05:16:57;15.20;99.90
27164;DHT22;14685;50.618;7.024;2023-08-31T05:19:24;15.20;99.90
27164;DHT22;14685;50.618;7.024;2023-08-31T05:21:53;15.20;99.90
27164;DHT22;14685;50.618;7.024;2023-08-31T05:24:20;15.30;99.90
27164;DHT22;14685;50.618;7.024;2023-08-31T05:26:48;15.20;99.90
27164;DHT22;14685;50.618;7.024;2023-08-31T05:29:15;15.20;99.90
27164;DHT22;14685;50.618;7.024;2023-08-31T05:31:43;15.20;99.90
27164;DHT22;14685;50.618;7.024;2023-08-31T05:34:10;15.20;99.90
27164;DHT22;14685;50.618;7.024;2023-08-31T05:36:37;15.20;99.90
27164;DHT22;14685;50.618;7.024;2023-08-31T05:39:04;15.20;99.90
27164;DHT22;14685;50.618;7.024;2023-08-31T05:41:31;15.30;99.90
27164;DHT22;14685;50.618;7.024;2023-08-31T05:44:00;15.30;99.90
27164;DHT22;14685;50.618;7.024;2023-08-31T05:46:27;15.40;99.90
27164;DHT22;14685;50.618;7.024;2023-08-31T05:48:54;15.40;99.90
27164;DHT22;14685;50.618;7.024;2023-08-31T05:51:21;15.40;99.90
27164;DHT22;14685;50.618;7.024;2023-08-31T05:53:48;15.40;99.90
27164;DHT22;14685;50.618;7.024;2023-08-31T05:56:15;15.40;99.90
27164;DHT22;14685;50.618;7.024;2023-08-31T05:58:43;15.50;99.90
27164;DHT22;14685;50.618;7.024;2023-08-31T06:01:10;15.50;99.90
27164;DHT22;14685;50.618;7.024;2023-08-31T06:03:38;15.60;99.90
27164;DHT22;14685;50.618;7.024;2023-08-31T06:06:05;15.60;99.90
27164;DHT22;14685;50.618;7.024;2023-08-31T06:08:34;15.80;99.90
27164;DHT22;14685;50.618;7.024;2023-08-31T06:11:01;15.80;99.90
27164;DHT22;14685;50.618;7.024;2023-08-31T06:13:28;16.00;99.90
27164;DHT22;14685;50.618;7.024;2023-08-31T06:15:55;16.00;99.90
27164;DHT22;14685;50.618;7.024;2023-08-31T06:18:23;16.20;99.90
27164;DHT22;14685;50.618;7.024;2023-08-31T06:20:50;16.30;99.90
27164;DHT22;14685;50.618;7.024;2023-08-31T06:23:17;16.40;99.90
27164;DHT22;14685;50.618;7.024;2023-08-31T06:25:45;16.60;99.90
27164;DHT22;14685;50.618;7.024;2023-08-31T06:28:13;16.70;99.90
27164;DHT22;14685;50.618;7.024;2023-08-31T06:30:41;16.80;99.90
27164;DHT22;14685;50.618;7.024;2023-08-31T06:33:14;17.00;99.90
27164;DHT22;14685;50.618;7.024;2023-08-31T06:35:42;17.10;99.90
27164;DHT22;14685;50.618;7.024;2023-08-31T06:38:11;17.30;99.90
27164;DHT22;14685;50.618;7.024;2023-08-31T06:40:37;17.40;99.90
27164;DHT22;14685;50.618;7.024;2023-08-31T06:43:05;17.60;99.90
27164;DHT22;14685;50.618;7.024;2023-08-31T06:45:33;17.70;99.90
27164;DHT22;14685;50.618;7.024;2023-08-31T06:48:01;17.90;99.90
27164;DHT22;14685;50.618;7.024;2023-08-31T06:50:30;18.10;99.90
27164;DHT22;14685;50.618;7.024;2023-08-31T06:52:56;18.20;99.90
27164;DHT22;14685;50.618;7.024;2023-08-31T06:55:23;18.40;99.90
27164;DHT22;14685;50.618;7.024;2023-08-31T07:00:21;18.60;99.90
27164;DHT22;14685;50.618;7.024;2023-08-31T07:02:48;18.80;99.90
27164;DHT22;14685;50.618;7.024;2023-08-31T07:05:15;18.80;99.90
27164;DHT22;14685;50.618;7.024;2023-08-31T07:07:42;19.00;99.90
27164;DHT22;14685;50.618;7.024;2023-08-31T07:10:09;19.20;99.90
27164;DHT22;14685;50.618;7.024;2023-08-31T07:12:36;19.30;99.90
27164;DHT22;14685;50.618;7.024;2023-08-31T07:15:03;19.50;99.90
27164;DHT22;14685;50.618;7.024;2023-08-31T07:17:31;19.70;99.90
27164;DHT22;14685;50.618;7.024;2023-08-31T07:19:59;19.90;99.90
27164;DHT22;14685;50.618;7.024;2023-08-31T07:22:27;20.10;99.90
27164;DHT22;14685;50.618;7.024;2023-08-31T07:24:55;20.20;99.90
27164;DHT22;14685;50.618;7.024;2023-08-31T07:29:50;20.50;99.90
27164;DHT22;14685;50.618;7.024;2023-08-31T07:32:16;20.70;99.90
27164;DHT22;14685;50.618;7.024;2023-08-31T07:37:11;21.00;99.90
27164;DHT22;14685;50.618;7.024;2023-08-31T07:39:39;21.20;99.90
27164;DHT22;14685;50.618;7.024;2023-08-31T07:42:07;21.30;99.90
27164;DHT22;14685;50.618;7.024;2023-08-31T07:44:34;21.30;99.90
27164;DHT22;14685;50.618;7.024;2023-08-31T07:51:57;21.80;99.90
27164;DHT22;14685;50.618;7.024;2023-08-31T07:54:25;21.80;99.90
27164;DHT22;14685;50.618;7.024;2023-08-31T07:56:52;21.50;99.90
27164;DHT22;14685;50.618;7.024;2023-08-31T07:59:19;21.40;99.90
27164;DHT22;14685;50.618;7.024;2023-08-31T08:01:48;21.20;99.90
27164;DHT22;14685;50.618;7.024;2023-08-31T08:04:15;21.10;99.90
27164;DHT22;14685;50.618;7.024;2023-08-31T08:06:46;21.10;99.90
27164;DHT22;14685;50.618;7.024;2023-08-31T08:09:13;21.10;99.90
27164;DHT22;14685;50.618;7.024;2023-08-31T08:11:41;21.20;99.90
27164;DHT22;14685;50.618;7.024;2023-08-31T08:14:09;21.20;99.90
27164;DHT22;14685;50.618;7.024;2023-08-31T08:16:36;21.20;99.90
27164;DHT22;14685;50.618;7.024;2023-08-31T08:19:05;21.30;99.90
27164;DHT22;14685;50.618;7.024;2023-08-31T08:21:33;21.30;99.90
27164;DHT22;14685;50.618;7.024;2023-08-31T08:24:00;21.40;99.90
27164;DHT22;14685;50.618;7.024;2023-08-31T08:26:27;21.50;99.90
27164;DHT22;14685;50.618;7.024;2023-08-31T08:28:54;21.70;99.90
27164;DHT22;14685;50.618;7.024;2023-08-31T08:31:24;22.00;99.90
27164;DHT22;14685;50.618;7.024;2023-08-31T08:33:52;22.30;99.90
27164;DHT22;14685;50.618;7.024;2023-08-31T08:36:19;22.70;99.90
27164;DHT22;14685;50.618;7.024;2023-08-31T08:38:47;22.80;99.90
27164;DHT22;14685;50.618;7.024;2023-08-31T08:41:14;22.70;99.90
27164;DHT22;14685;50.618;7.024;2023-08-31T08:43:45;22.70;99.90
27164;DHT22;14685;50.618;7.024;2023-08-31T08:46:13;22.70;99.90
27164;DHT22;14685;50.618;7.024;2023-08-31T08:48:42;22.50;99.90
27164;DHT22;14685;50.618;7.024;2023-08-31T08:51:11;22.70;99.90
27164;DHT22;14685;50.618;7.024;2023-08-31T08:53:43;22.90;99.90
27164;DHT22;14685;50.618;7.024;2023-08-31T08:56:10;23.00;99.90
27164;DHT22;14685;50.618;7.024;2023-08-31T08:58:38;23.20;99.90
27164;DHT22;14685;50.618;7.024;2023-08-31T09:01:07;23.30;99.90
27164;DHT22;14685;50.618;7.024;2023-08-31T09:03:35;23.20;99.90
27164;DHT22;14685;50.618;7.024;2023-08-31T09:06:02;23.20;99.90
27164;DHT22;14685;50.618;7.024;2023-08-31T09:08:31;23.00;99.90
27164;DHT22;14685;50.618;7.024;2023-08-31T09:10:58;23.10;99.90
27164;DHT22;14685;50.618;7.024;2023-08-31T09:13:29;22.90;99.90
27164;DHT22;14685;50.618;7.024;2023-08-31T09:15:56;23.00;99.90
27164;DHT22;14685;50.618;7.024;2023-08-31T09:20:53;23.20;99.90
27164;DHT22;14685;50.618;7.024;2023-08-31T09:23:20;23.20;99.90
27164;DHT22;14685;50.618;7.024;2023-08-31T09:25:50;23.20;99.90
27164;DHT22;14685;50.618;7.024;2023-08-31T09:28:24;23.30;99.90
27164;DHT22;14685;50.618;7.024;2023-08-31T09:31:05;23.30;99.90
27164;DHT22;14685;50.618;7.024;2023-08-31T09:33:37;23.20;99.90
27164;DHT22;14685;50.618;7.024;2023-08-31T09:36:06;23.20;99.90
27164;DHT22;14685;50.618;7.024;2023-08-31T09:38:44;23.20;99.90
27164;DHT22;14685;50.618;7.024;2023-08-31T09:41:12;23.10;99.90
27164;DHT22;14685;50.618;7.024;2023-08-31T09:43:39;23.10;99.90
27164;DHT22;14685;50.618;7.024;2023-08-31T09:46:07;23.20;99.90
27164;DHT22;14685;50.618;7.024;2023-08-31T09:48:37;23.20;99.90
27164;DHT22;14685;50.618;7.024;2023-08-31T09:51:12;23.20;99.90
27164;DHT22;14685;50.618;7.024;2023-08-31T09:53:40;23.30;99.90
27164;DHT22;14685;50.618;7.024;2023-08-31T09:56:12;23.40;99.90
27164;DHT22;14685;50.618;7.024;2023-08-31T09:58:42;23.30;99.90
27164;DHT22;14685;50.618;7.024;2023-08-31T10:01:10;23.40;99.90
27164;DHT22;14685;50.618;7.024;2023-08-31T10:03:54;23.30;99.90
27164;DHT22;14685;50.618;7.024;2023-08-31T10:06:22;23.20;99.90
27164;DHT22;14685;50.618;7.024;2023-08-31T10:08:49;23.10;99.90
27164;DHT22;14685;50.618;7.024;2023-08-31T10:11:17;23.00;99.90
27164;DHT22;14685;50.618;7.024;2023-08-31T10:13:45;23.00;99.90
27164;DHT22;14685;50.618;7.024;2023-08-31T10:16:15;23.00;99.90
27164;DHT22;14685;50.618;7.024;2023-08-31T10:18:42;23.00;99.90
27164;DHT22;14685;50.618;7.024;2023-08-31T10:21:10;23.10;99.90
27164;DHT22;14685;50.618;7.024;2023-08-31T10:23:44;23.10;99.90
27164;DHT22;14685;50.618;7.024;2023-08-31T10:26:11;23.00;99.90
27164;DHT22;14685;50.618;7.024;2023-08-31T10:28:40;23.00;99.90
27164;DHT22;14685;50.618;7.024;2023-08-31T10:31:10;23.10;99.90
27164;DHT22;14685;50.618;7.024;2023-08-31T10:33:45;23.10;99.90
27164;DHT22;14685;50.618;7.024;2023-08-31T10:36:17;23.10;99.90
27164;DHT22;14685;50.618;7.024;2023-08-31T10:38:46;23.20;99.90
27164;DHT22;14685;50.618;7.024;2023-08-31T10:46:24;23.30;99.90
27164;DHT22;14685;50.618;7.024;2023-08-31T10:51:53;23.20;99.90
27164;DHT22;14685;50.618;7.024;2023-08-31T10:54:23;23.10;99.90
27164;DHT22;14685;50.618;7.024;2023-08-31T10:59:45;23.10;99.90
27164;DHT22;14685;50.618;7.024;2023-08-31T11:05:14;23.30;99.90
27164;DHT22;14685;50.618;7.024;2023-08-31T11:07:46;23.30;99.90
27164;DHT22;14685;50.618;7.024;2023-08-31T11:12:53;23.60;99.90
27164;DHT22;14685;50.618;7.024;2023-08-31T11:15:22;23.60;99.90
27164;DHT22;14685;50.618;7.024;2023-08-31T11:17:55;23.60;99.90
27164;DHT22;14685;50.618;7.024;2023-08-31T11:20:23;23.60;99.90
27164;DHT22;14685;50.618;7.024;2023-08-31T11:22:55;23.60;99.90
27164;DHT22;14685;50.618;7.024;2023-08-31T11:25:23;23.50;99.90
27164;DHT22;14685;50.618;7.024;2023-08-31T11:27:56;23.50;99.90
27164;DHT22;14685;50.618;7.024;2023-08-31T11:30:28;23.40;99.90
27164;DHT22;14685;50.618;7.024;2023-08-31T11:35:36;23.40;99.90
27164;DHT22;14685;50.618;7.024;2023-08-31T11:38:03;23.40;99.90
27164;DHT22;14685;50.618;7.024;2023-08-31T11:40:31;23.40;99.90
27164;DHT22;14685;50.618;7.024;2023-08-31T11:42:58;23.40;99.90
27164;DHT22;14685;50.618;7.024;2023-08-31T11:45:31;23.40;99.90
27164;DHT22;14685;50.618;7.024;2023-08-31T11:47:58;23.30;99.90
27164;DHT22;14685;50.618;7.024;2023-08-31T11:50:26;23.30;99.90
27164;DHT22;14685;50.618;7.024;2023-08-31T11:52:54;23.30;99.90
27164;DHT22;14685;50.618;7.024;2023-08-31T11:55:22;23.40;99.90
27164;DHT22;14685;50.618;7.024;2023-08-31T11:57:54;23.40;99.90
27164;DHT22;14685;50.618;7.024;2023-08-31T12:00:22;23.40;99.90
27164;DHT22;14685;50.618;7.024;2023-08-31T12:03:00;23.40;99.90
27164;DHT22;14685;50.618;7.024;2023-08-31T12:05:43;23.20;99.90
27164;DHT22;14685;50.618;7.024;2023-08-31T12:08:14;23.10;99.90
27164;DHT22;14685;50.618;7.024;2023-08-31T12:10:41;23.00;99.90
27164;DHT22;14685;50.618;7.024;2023-08-31T12:13:09;23.00;99.90
27164;DHT22;14685;50.618;7.024;2023-08-31T12:15:37;22.90;99.90
27164;DHT22;14685;50.618;7.024;2023-08-31T12:18:12;22.90;99.90
27164;DHT22;14685;50.618;7.024;2023-08-31T12:20:50;22.90;99.90
27164;DHT22;14685;50.618;7.024;2023-08-31T12:23:20;23.00;99.90
27164;DHT22;14685;50.618;7.024;2023-08-31T12:25:51;23.00;99.90
27164;DHT22;14685;50.618;7.024;2023-08-31T12:28:22;23.00;99.90
27164;DHT22;14685;50.618;7.024;2023-08-31T12:30:53;23.00;99.90
27164;DHT22;14685;50.618;7.024;2023-08-31T12:33:22;23.10;99.90
27164;DHT22;14685;50.618;7.024;2023-08-31T12:35:49;23.10;99.90
27164;DHT22;14685;50.618;7.024;2023-08-31T12:38:16;23.10;99.90
27164;DHT22;14685;50.618;7.024;2023-08-31T12:40:44;23.10;99.90
27164;DHT22;14685;50.618;7.024;2023-08-31T12:43:11;23.20;99.90
27164;DHT22;14685;50.618;7.024;2023-08-31T12:45:39;23.30;99.90
27164;DHT22;14685;50.618;7.024;2023-08-31T12:48:06;23.40;99.90
27164;DHT22;14685;50.618;7.024;2023-08-31T12:50:34;23.30;99.90
27164;DHT22;14685;50.618;7.024;2023-08-31T12:53:02;23.40;99.90
27164;DHT22;14685;50.618;7.024;2023-08-31T12:55:30;23.30;99.90
27164;DHT22;14685;50.618;7.024;2023-08-31T12:57:57;23.20;99.90
27164;DHT22;14685;50.618;7.024;2023-08-31T13:00:25;23.20;99.90
27164;DHT22;14685;50.618;7.024;2023-08-31T13:02:53;23.10;99.90
27164;DHT22;14685;50.618;7.024;2023-08-31T13:05:20;23.10;99.90
27164;DHT22;14685;50.618;7.024;2023-08-31T13:07:47;23.20;99.90
27164;DHT22;14685;50.618;7.024;2023-08-31T13:10:14;23.20;99.90
27164;DHT22;14685;50.618;7.024;2023-08-31T13:12:41;23.20;99.90
27164;DHT22;14685;50.618;7.024;2023-08-31T13:15:08;23.10;99.90
27164;DHT22;14685;50.618;7.024;2023-08-31T13:17:35;23.20;99.90
27164;DHT22;14685;50.618;7.024;2023-08-31T13:20:05;23.20;99.90
27164;DHT22;14685;50.618;7.024;2023-08-31T13:22:33;23.20;99.90
27164;DHT22;14685;50.618;7.024;2023-08-31T13:25:01;23.20;99.90
27164;DHT22;14685;50.618;7.024;2023-08-31T13:27:28;23.20;99.90
27164;DHT22;14685;50.618;7.024;2023-08-31T13:29:56;23.20;99.90
27164;DHT22;14685;50.618;7.024;2023-08-31T13:32:23;23.20;99.90
27164;DHT22;14685;50.618;7.024;2023-08-31T13:34:50;23.20;99.90
27164;DHT22;14685;50.618;7.024;2023-08-31T13:37:17;23.10;99.90
27164;DHT22;14685;50.618;7.024;2023-08-31T13:39:44;23.10;99.90
27164;DHT22;14685;50.618;7.024;2023-08-31T13:42:11;23.10;99.90
27164;DHT22;14685;50.618;7.024;2023-08-31T13:44:38;23.10;99.90
27164;DHT22;14685;50.618;7.024;2023-08-31T13:47:06;23.00;99.90
27164;DHT22;14685;50.618;7.024;2023-08-31T13:49:34;23.00;99.90
27164;DHT22;14685;50.618;7.024;2023-08-31T13:54:33;22.90;99.90
27164;DHT22;14685;50.618;7.024;2023-08-31T13:57:00;22.90;99.90
27164;DHT22;14685;50.618;7.024;2023-08-31T13:59:30;22.90;99.90
27164;DHT22;14685;50.618;7.024;2023-08-31T14:02:00;22.80;99.90
27164;DHT22;14685;50.618;7.024;2023-08-31T14:04:29;22.90;99.90
27164;DHT22;14685;50.618;7.024;2023-08-31T14:06:56;22.90;99.90
27164;DHT22;14685;50.618;7.024;2023-08-31T14:09:23;22.90;99.90
27164;DHT22;14685;50.618;7.024;2023-08-31T14:11:50;22.90;99.90
27164;DHT22;14685;50.618;7.024;2023-08-31T14:14:17;22.90;99.90
27164;DHT22;14685;50.618;7.024;2023-08-31T14:16:44;22.90;99.90
27164;DHT22;14685;50.618;7.024;2023-08-31T14:19:12;22.80;99.90
27164;DHT22;14685;50.618;7.024;2023-08-31T14:21:39;22.80;99.90
27164;DHT22;14685;50.618;7.024;2023-08-31T14:24:06;22.80;99.90
27164;DHT22;14685;50.618;7.024;2023-08-31T14:26:33;22.80;99.90
27164;DHT22;14685;50.618;7.024;2023-08-31T14:29:00;22.70;99.90
27164;DHT22;14685;50.618;7.024;2023-08-31T14:31:27;22.80;99.90
27164;DHT22;14685;50.618;7.024;2023-08-31T14:33:54;22.70;99.90
27164;DHT22;14685;50.618;7.024;2023-08-31T14:36:25;22.70;99.90
27164;DHT22;14685;50.618;7.024;2023-08-31T14:38:54;22.70;99.90
27164;DHT22;14685;50.618;7.024;2023-08-31T14:41:21;22.60;99.90
27164;DHT22;14685;50.618;7.024;2023-08-31T14:43:49;22.60;99.90
27164;DHT22;14685;50.618;7.024;2023-08-31T14:46:15;22.50;99.90
27164;DHT22;14685;50.618;7.024;2023-08-31T14:48:42;22.50;99.90
27164;DHT22;14685;50.618;7.024;2023-08-31T14:51:10;22.50;99.90
27164;DHT22;14685;50.618;7.024;2023-08-31T14:53:39;22.40;99.90
27164;DHT22;14685;50.618;7.024;2023-08-31T14:56:07;22.40;99.90
27164;DHT22;14685;50.618;7.024;2023-08-31T14:58:34;22.50;99.90
27164;DHT22;14685;50.618;7.024;2023-08-31T15:01:01;22.50;99.90
27164;DHT22;14685;50.618;7.024;2023-08-31T15:03:28;22.50;99.90
27164;DHT22;14685;50.618;7.024;2023-08-31T15:05:58;22.40;99.90
27164;DHT22;14685;50.618;7.024;2023-08-31T15:08:38;22.40;99.90
27164;DHT22;14685;50.618;7.024;2023-08-31T15:11:05;22.40;99.90
27164;DHT22;14685;50.618;7.024;2023-08-31T15:13:32;22.50;99.90
27164;DHT22;14685;50.618;7.024;2023-08-31T15:15:59;22.50;99.90
27164;DHT22;14685;50.618;7.024;2023-08-31T15:18:27;22.50;99.90
27164;DHT22;14685;50.618;7.024;2023-08-31T15:20:54;22.40;99.90
27164;DHT22;14685;50.618;7.024;2023-08-31T15:23:21;22.40;99.90
27164;DHT22;14685;50.618;7.024;2023-08-31T15:25:49;22.40;99.90
27164;DHT22;14685;50.618;7.024;2023-08-31T15:28:16;22.50;99.90
27164;DHT22;14685;50.618;7.024;2023-08-31T15:30:44;22.50;99.90
27164;DHT22;14685;50.618;7.024;2023-08-31T15:33:11;22.50;99.90
27164;DHT22;14685;50.618;7.024;2023-08-31T15:35:38;22.50;99.90
27164;DHT22;14685;50.618;7.024;2023-08-31T15:38:05;22.50;99.90
27164;DHT22;14685;50.618;7.024;2023-08-31T15:40:32;22.50;99.90
27164;DHT22;14685;50.618;7.024;2023-08-31T15:42:59;22.40;99.90
27164;DHT22;14685;50.618;7.024;2023-08-31T15:45:27;22.40;99.90
27164;DHT22;14685;50.618;7.024;2023-08-31T15:47:55;22.40;99.90
27164;DHT22;14685;50.618;7.024;2023-08-31T15:50:22;22.40;99.90
27164;DHT22;14685;50.618;7.024;2023-08-31T15:52:49;22.30;99.90
27164;DHT22;14685;50.618;7.024;2023-08-31T15:55:17;22.30;99.90
27164;DHT22;14685;50.618;7.024;2023-08-31T15:57:44;22.30;99.90
27164;DHT22;14685;50.618;7.024;2023-08-31T16:00:11;22.20;99.90
27164;DHT22;14685;50.618;7.024;2023-08-31T16:02:41;22.20;99.90
27164;DHT22;14685;50.618;7.024;2023-08-31T16:05:08;22.20;99.90
27164;DHT22;14685;50.618;7.024;2023-08-31T16:07:36;22.10;99.90
27164;DHT22;14685;50.618;7.024;2023-08-31T16:10:07;22.10;99.90
27164;DHT22;14685;50.618;7.024;2023-08-31T16:12:34;22.10;99.90
27164;DHT22;14685;50.618;7.024;2023-08-31T16:15:01;22.00;99.90
27164;DHT22;14685;50.618;7.024;2023-08-31T16:17:28;22.00;99.90
27164;DHT22;14685;50.618;7.024;2023-08-31T16:19:56;22.00;99.90
27164;DHT22;14685;50.618;7.024;2023-08-31T16:22:24;22.00;99.90
27164;DHT22;14685;50.618;7.024;2023-08-31T16:24:51;22.00;99.90
27164;DHT22;14685;50.618;7.024;2023-08-31T16:27:18;22.00;99.90